Kriva Palanka, Macedonia
Current Conditions -  °F | °C
As of 1:30 PM on Tuesday 21 Oct 2014 (Local Time) from LWSK Reporting Station
Clear Clear  
Wind Chill: 70°   Ceiling: Unl
Heat Index: 70°   Visibility: 6mi
Dew Point: 50°   Wind: 0mph
Humidity: 49%   Direction: NA
Pressure: 29.88"   Gusts: NA
Location:  42.22°N, 22.33°E
Report Text: LWSK 211230Z 00000KT CAVOK 21/10 Q1012 NOSIG
Loading
Personal Weather Stations






























Interactive Weather Map
Tropical Storm Tracking
New forecast layout! Learn more

10-Day Weather Forecast

Advertisements
Track Severe Weather on mobile